createdAt,value
2022-09-06T00:01:38.787Z,3.38
2022-09-06T00:04:05.806Z,4.30
2022-09-06T00:06:32.673Z,3.75
2022-09-06T00:08:59.832Z,3.25
2022-09-06T00:11:26.758Z,3.42
2022-09-06T00:13:53.605Z,3.90
2022-09-06T00:16:27.258Z,3.45
2022-09-06T00:18:56.613Z,4.00
2022-09-06T00:21:25.588Z,3.67
2022-09-06T00:23:52.650Z,3.17
2022-09-06T00:26:19.797Z,3.58
2022-09-06T00:28:46.771Z,3.47
2022-09-06T00:31:18.822Z,3.30
2022-09-06T00:33:45.745Z,3.95
2022-09-06T00:36:12.648Z,3.75
2022-09-06T00:38:39.634Z,3.50
2022-09-06T00:41:07.203Z,3.15
2022-09-06T00:43:34.059Z,4.20
2022-09-06T00:46:01.065Z,4.00
2022-09-06T00:48:27.976Z,4.18
2022-09-06T00:50:57.643Z,4.07
2022-09-06T00:53:24.553Z,3.90
2022-09-06T00:55:51.383Z,4.25
2022-09-06T00:58:18.214Z,4.15
2022-09-06T01:00:45.065Z,4.20
2022-09-06T01:03:12.021Z,4.35
2022-09-06T01:05:54.571Z,4.03
2022-09-06T01:08:43.471Z,3.90
2022-09-06T01:11:45.731Z,4.13
2022-09-06T01:14:41.452Z,4.20
2022-09-06T01:17:16.675Z,4.25
2022-09-06T01:20:21.193Z,4.07
2022-09-06T01:23:23.253Z,3.70
2022-09-06T01:26:17.689Z,3.67
2022-09-06T01:28:46.040Z,3.90
2022-09-06T01:31:31.566Z,3.85
2022-09-06T01:34:07.258Z,4.32
2022-09-06T01:37:08.991Z,5.00
2022-09-06T01:39:36.811Z,4.55
2022-09-06T01:42:10.839Z,4.40
2022-09-06T01:44:38.213Z,3.88
2022-09-06T01:47:09.287Z,4.10
2022-09-06T01:49:55.630Z,4.10
2022-09-06T01:52:37.974Z,3.92
2022-09-06T01:55:13.676Z,4.22
2022-09-06T01:58:16.185Z,4.15
2022-09-06T02:01:22.175Z,3.53
2022-09-06T02:03:53.015Z,3.90
2022-09-06T02:06:26.876Z,3.97
2022-09-06T02:09:07.068Z,3.80
2022-09-06T02:11:39.805Z,3.58
2022-09-06T02:14:13.024Z,4.53
2022-09-06T02:16:40.714Z,3.92
2022-09-06T02:19:19.546Z,4.20
2022-09-06T02:21:46.423Z,3.92
2022-09-06T02:24:18.513Z,4.22
2022-09-06T02:26:45.380Z,3.90
2022-09-06T02:29:12.318Z,4.13
2022-09-06T02:31:47.526Z,4.07
2022-09-06T02:34:16.029Z,4.40
2022-09-06T02:36:42.881Z,4.35
2022-09-06T02:39:10.061Z,4.38
2022-09-06T02:41:36.958Z,4.20
2022-09-06T02:44:03.846Z,4.15
2022-09-06T02:46:30.867Z,4.55
2022-09-06T02:48:57.975Z,4.05
2022-09-06T02:51:24.800Z,3.95
2022-09-06T02:53:51.759Z,3.90
2022-09-06T02:56:18.670Z,3.80
2022-09-06T02:58:45.588Z,3.83
2022-09-06T03:01:12.607Z,4.40
2022-09-06T03:03:39.502Z,4.05
2022-09-06T03:06:06.644Z,4.00
2022-09-06T03:08:34.238Z,3.80
2022-09-06T03:11:01.271Z,3.88
2022-09-06T03:13:28.499Z,3.75
2022-09-06T03:15:57.225Z,4.15
2022-09-06T03:18:24.874Z,4.38
2022-09-06T03:20:52.726Z,4.13
2022-09-06T03:23:20.092Z,3.80
2022-09-06T03:25:46.998Z,4.30
2022-09-06T03:28:13.928Z,3.92
2022-09-06T03:30:40.999Z,3.95
2022-09-06T03:33:07.889Z,4.18
2022-09-06T03:35:34.717Z,3.88
2022-09-06T03:38:01.550Z,3.65
2022-09-06T03:40:28.460Z,3.70
2022-09-06T03:42:55.297Z,4.13
2022-09-06T03:49:47.607Z,4.40
2022-09-06T03:52:15.079Z,4.35
2022-09-06T03:54:41.947Z,4.00
2022-09-06T03:57:08.957Z,4.25
2022-09-06T03:59:35.916Z,4.65
2022-09-06T04:02:02.932Z,4.13
2022-09-06T04:04:29.835Z,4.70
2022-09-06T04:06:56.673Z,4.20
2022-09-06T04:09:24.101Z,4.63
2022-09-06T04:11:51.037Z,4.13
2022-09-06T04:14:17.949Z,4.30
2022-09-06T04:16:44.851Z,4.47
2022-09-06T04:19:11.714Z,4.35
2022-09-06T04:21:38.912Z,4.43
2022-09-06T04:24:05.807Z,3.95
2022-09-06T04:26:32.887Z,4.53
2022-09-06T04:28:59.744Z,4.28
2022-09-06T04:31:26.644Z,3.85
2022-09-06T04:33:53.615Z,4.22
2022-09-06T04:36:20.681Z,4.38
2022-09-06T04:38:47.584Z,4.88
2022-09-06T04:41:16.355Z,4.30
2022-09-06T04:43:43.286Z,4.80
2022-09-06T04:46:22.312Z,4.40
2022-09-06T04:48:49.537Z,4.68
2022-09-06T04:51:16.505Z,4.05
2022-09-06T04:53:43.441Z,4.50
2022-09-06T04:56:18.413Z,4.93
2022-09-06T04:58:45.897Z,4.68
2022-09-06T05:01:13.011Z,4.70
2022-09-06T05:03:39.963Z,4.45
2022-09-06T05:06:08.711Z,4.57
2022-09-06T05:08:41.906Z,4.05
2022-09-06T05:11:09.097Z,4.18
2022-09-06T05:13:36.028Z,5.00
2022-09-06T05:16:04.114Z,4.40
2022-09-06T05:18:31.208Z,4.47
2022-09-06T05:20:58.983Z,5.03
2022-09-06T05:23:25.966Z,3.92
2022-09-06T05:25:52.967Z,4.65
2022-09-06T05:28:19.928Z,4.53
2022-09-06T05:30:47.011Z,4.68
2022-09-06T05:33:14.641Z,4.93
2022-09-06T05:35:41.566Z,6.00
2022-09-06T05:38:08.409Z,4.60
2022-09-06T05:40:35.264Z,5.55
2022-09-06T05:43:02.218Z,5.88
2022-09-06T05:45:29.278Z,5.35
2022-09-06T05:47:56.268Z,4.63
2022-09-06T05:50:23.345Z,4.68
2022-09-06T05:52:50.244Z,5.15
2022-09-06T05:55:18.303Z,5.03
2022-09-06T05:57:45.267Z,4.22
2022-09-06T06:00:13.024Z,5.18
2022-09-06T06:02:40.556Z,4.63
2022-09-06T06:05:08.082Z,4.97
2022-09-06T06:07:35.034Z,4.78
2022-09-06T06:10:01.907Z,4.38
2022-09-06T06:12:28.818Z,4.82
2022-09-06T06:14:55.727Z,4.53
2022-09-06T06:17:22.598Z,4.40
2022-09-06T06:19:49.531Z,4.38
2022-09-06T06:22:16.398Z,4.75
2022-09-06T06:24:43.295Z,4.70
2022-09-06T06:27:10.181Z,4.35
2022-09-06T06:29:37.190Z,4.50
2022-09-06T06:32:05.270Z,4.88
2022-09-06T06:34:32.149Z,4.38
2022-09-06T06:36:59.418Z,4.82
2022-09-06T06:39:26.365Z,3.70
2022-09-06T06:46:38.247Z,5.10
2022-09-06T06:49:05.224Z,4.38
2022-09-06T06:51:32.942Z,5.20
2022-09-06T06:54:00.141Z,4.80
2022-09-06T06:56:32.390Z,4.70
2022-09-06T06:59:00.645Z,4.90
2022-09-06T07:01:28.739Z,4.60
2022-09-06T07:03:55.992Z,4.95
2022-09-06T07:09:09.946Z,4.10
2022-09-06T07:11:36.782Z,4.28
2022-09-06T07:14:04.063Z,3.22
2022-09-06T07:16:31.535Z,4.35
2022-09-06T07:18:58.585Z,3.83
2022-09-06T07:21:42.538Z,4.57
2022-09-06T07:24:10.137Z,3.90
2022-09-06T07:26:38.518Z,4.10
2022-09-06T07:29:06.268Z,4.60
2022-09-06T07:34:20.938Z,4.78
2022-09-06T07:36:48.464Z,3.92
2022-09-06T07:39:15.523Z,4.03
2022-09-06T07:41:43.116Z,4.57
2022-09-06T07:44:10.324Z,4.00
2022-09-06T07:46:37.330Z,4.22
2022-09-06T07:49:05.271Z,5.13
2022-09-06T07:51:32.519Z,5.03
2022-09-06T07:54:28.916Z,4.72
2022-09-06T07:56:47.047Z,5.07
2022-09-06T07:59:13.998Z,4.63
2022-09-06T08:01:40.977Z,5.03
2022-09-06T08:04:12.905Z,4.72
2022-09-06T08:09:35.282Z,4.43
2022-09-06T08:12:08.934Z,4.50
2022-09-06T08:14:36.005Z,4.50
2022-09-06T08:17:03.407Z,3.95
2022-09-06T08:19:30.475Z,4.85
2022-09-06T08:21:57.372Z,4.55
2022-09-06T08:24:24.276Z,4.28
2022-09-06T08:26:51.414Z,4.65
2022-09-06T08:29:19.894Z,4.97
2022-09-06T08:31:47.061Z,4.47
2022-09-06T08:34:14.396Z,4.25
2022-09-06T08:36:41.524Z,4.40
2022-09-06T08:39:09.970Z,4.57
2022-09-06T08:42:01.695Z,4.38
2022-09-06T08:44:58.445Z,5.35
2022-09-06T08:47:26.194Z,4.32
2022-09-06T08:50:02.989Z,4.32
2022-09-06T08:52:35.864Z,5.20
2022-09-06T08:55:21.350Z,4.70
2022-09-06T08:58:09.221Z,4.57
2022-09-06T09:00:36.411Z,4.28
2022-09-06T09:03:06.628Z,4.22
2022-09-06T09:05:34.960Z,5.28
2022-09-06T09:08:18.804Z,4.32
2022-09-06T09:10:50.305Z,4.15
2022-09-06T09:13:38.419Z,4.63
2022-09-06T09:16:05.769Z,4.72
2022-09-06T09:18:35.094Z,4.57
2022-09-06T09:21:01.940Z,4.50
2022-09-06T09:23:29.454Z,4.47
2022-09-06T09:25:58.469Z,4.88
2022-09-06T09:28:26.022Z,6.40
2022-09-06T09:30:56.441Z,4.65
2022-09-06T09:33:36.834Z,4.80
2022-09-06T09:36:10.375Z,4.07
2022-09-06T09:38:44.620Z,4.45
2022-09-06T09:41:24.021Z,4.43
2022-09-06T09:44:17.594Z,4.38
2022-09-06T09:46:44.446Z,4.75
2022-09-06T09:49:14.526Z,4.32
2022-09-06T09:51:42.859Z,5.03
2022-09-06T09:54:15.232Z,4.38
2022-09-06T09:56:49.769Z,4.20
2022-09-06T09:59:30.309Z,4.72
2022-09-06T10:02:00.193Z,4.30
2022-09-06T10:04:43.541Z,4.30
2022-09-06T10:07:20.678Z,4.55
2022-09-06T10:09:48.983Z,4.55
2022-09-06T10:12:32.642Z,3.83
2022-09-06T10:15:02.447Z,4.43
2022-09-06T10:17:37.983Z,4.20
2022-09-06T10:20:12.655Z,4.40
2022-09-06T10:23:07.132Z,4.35
2022-09-06T10:25:39.088Z,5.20
2022-09-06T10:28:46.120Z,4.25
2022-09-06T10:31:37.495Z,4.57
2022-09-06T10:34:07.537Z,4.03
2022-09-06T10:36:36.183Z,4.20
2022-09-06T10:39:10.424Z,3.90
2022-09-06T10:41:57.585Z,4.13
2022-09-06T10:44:45.630Z,3.65
2022-09-06T10:47:14.201Z,3.20
2022-09-06T10:49:44.538Z,4.07
2022-09-06T10:52:14.040Z,3.83
2022-09-06T10:54:41.171Z,3.88
2022-09-06T11:00:13.153Z,4.57
2022-09-06T11:05:47.422Z,3.30
2022-09-06T11:08:51.170Z,3.70
2022-09-06T11:11:23.602Z,4.28
2022-09-06T11:13:50.464Z,4.03
2022-09-06T11:16:29.301Z,3.97
2022-09-06T11:19:11.176Z,3.85
2022-09-06T11:22:12.769Z,4.10
2022-09-06T11:25:17.696Z,4.40
2022-09-06T11:27:46.127Z,4.18
2022-09-06T11:30:17.110Z,4.38
2022-09-06T11:32:48.903Z,4.03
2022-09-06T11:35:23.005Z,4.28
2022-09-06T11:37:57.909Z,4.72
2022-09-06T11:40:30.157Z,4.68
2022-09-06T11:42:59.387Z,4.53
2022-09-06T11:45:43.331Z,4.10
2022-09-06T11:48:26.609Z,4.68
2022-09-06T11:50:53.604Z,4.53
2022-09-06T11:53:24.581Z,4.28
2022-09-06T11:56:13.550Z,4.35
2022-09-06T11:58:40.403Z,4.18
2022-09-06T12:01:13.360Z,4.43
2022-09-06T12:06:43.794Z,4.50
2022-09-06T12:09:27.650Z,3.30
2022-09-06T12:11:56.574Z,3.33
2022-09-06T12:14:42.887Z,3.20
2022-09-06T12:17:09.917Z,3.10
2022-09-06T12:19:48.019Z,3.08
2022-09-06T12:22:29.988Z,3.03
2022-09-06T12:25:00.267Z,3.58
2022-09-06T12:27:33.939Z,3.28
2022-09-06T12:30:13.924Z,3.15
2022-09-06T12:32:43.850Z,3.50
2022-09-06T12:38:06.547Z,3.58
2022-09-06T12:40:35.648Z,3.25
2022-09-06T12:43:03.481Z,3.83
2022-09-06T12:45:30.411Z,3.83
2022-09-06T12:48:08.812Z,3.65
2022-09-06T12:50:35.883Z,3.20
2022-09-06T12:53:03.570Z,4.80
2022-09-06T12:55:32.765Z,4.13
2022-09-06T12:58:07.671Z,4.22
2022-09-06T13:00:40.566Z,4.03
2022-09-06T13:03:14.708Z,3.70
2022-09-06T13:05:41.820Z,4.13
2022-09-06T13:08:13.268Z,3.63
2022-09-06T13:10:42.176Z,3.70
2022-09-06T13:13:09.156Z,4.50
2022-09-06T13:15:36.093Z,4.00
2022-09-06T13:18:32.419Z,3.72
2022-09-06T13:21:00.156Z,3.40
2022-09-06T13:23:27.326Z,3.63
2022-09-06T13:25:54.570Z,3.88
2022-09-06T13:28:29.519Z,3.80
2022-09-06T13:31:14.407Z,3.47
2022-09-06T13:33:41.558Z,3.72
2022-09-06T13:36:22.862Z,3.42
2022-09-06T13:38:50.827Z,3.13
2022-09-06T13:41:26.897Z,3.60
2022-09-06T13:43:58.802Z,3.60
2022-09-06T13:46:25.771Z,4.20
2022-09-06T13:48:59.094Z,3.30
2022-09-06T13:54:07.698Z,3.20
2022-09-06T13:56:35.081Z,3.10
2022-09-06T13:59:02.304Z,3.50
2022-09-06T14:02:32.671Z,3.40
2022-09-06T14:04:59.526Z,3.55
2022-09-06T14:07:26.453Z,3.17
2022-09-06T14:09:53.339Z,3.67
2022-09-06T14:12:20.129Z,2.88
2022-09-06T14:14:46.969Z,3.08
2022-09-06T14:17:14.558Z,3.08
2022-09-06T14:19:41.641Z,3.38
2022-09-06T14:22:08.559Z,3.47
2022-09-06T14:24:35.443Z,3.30
2022-09-06T14:27:02.333Z,2.90
2022-09-06T14:29:29.182Z,3.60
2022-09-06T14:31:55.998Z,3.55
2022-09-06T14:34:22.848Z,3.40
2022-09-06T14:36:49.655Z,3.58
2022-09-06T14:39:16.808Z,3.30
2022-09-06T14:41:43.627Z,3.72
2022-09-06T14:44:10.710Z,3.95
2022-09-06T14:46:37.742Z,3.28
2022-09-06T14:49:07.414Z,2.97
2022-09-06T14:51:34.955Z,3.20
2022-09-06T14:54:04.197Z,2.78
2022-09-06T14:56:31.127Z,2.95
2022-09-06T14:58:59.806Z,2.75
2022-09-06T15:01:28.611Z,3.50
2022-09-06T15:03:57.108Z,3.50
2022-09-06T15:06:24.708Z,2.42
2022-09-06T15:08:54.640Z,2.95
2022-09-06T15:11:36.972Z,3.15
2022-09-06T15:14:05.149Z,3.30
2022-09-06T15:16:32.740Z,3.38
2022-09-06T15:19:03.957Z,3.08
2022-09-06T15:21:31.205Z,2.80
2022-09-06T15:23:58.752Z,3.00
2022-09-06T15:26:25.625Z,3.05
2022-09-06T15:28:52.441Z,3.05
2022-09-06T15:31:19.632Z,3.10
2022-09-06T15:33:48.805Z,3.53
2022-09-06T15:36:16.216Z,2.78
2022-09-06T15:38:45.021Z,2.20
2022-09-06T15:41:19.478Z,2.90
2022-09-06T15:43:47.640Z,2.70
2022-09-06T15:46:15.372Z,3.00
2022-09-06T15:48:43.358Z,2.70
2022-09-06T15:51:10.944Z,3.00
2022-09-06T15:53:38.081Z,3.70
2022-09-06T15:56:06.088Z,2.33
2022-09-06T15:58:32.997Z,2.70
2022-09-06T16:01:04.828Z,2.70
2022-09-06T16:03:31.941Z,2.85
2022-09-06T16:08:58.525Z,2.17
2022-09-06T16:11:25.863Z,2.47
2022-09-06T16:13:53.109Z,2.55
2022-09-06T16:16:20.138Z,2.10
2022-09-06T16:18:47.340Z,1.73
2022-09-06T16:21:18.577Z,2.53
2022-09-06T16:23:58.972Z,1.88
2022-09-06T16:26:27.137Z,1.83
2022-09-06T16:28:54.361Z,1.63
2022-09-06T16:31:21.647Z,1.60
2022-09-06T16:33:49.151Z,1.50
2022-09-06T16:36:16.344Z,1.58
2022-09-06T16:38:43.677Z,1.67
2022-09-06T16:41:36.264Z,2.28
2022-09-06T16:44:03.195Z,1.80
2022-09-06T16:46:30.109Z,1.70
2022-09-06T16:48:59.541Z,1.58
2022-09-06T16:51:27.278Z,1.80
2022-09-06T16:53:54.326Z,1.70
2022-09-06T16:56:22.756Z,2.00
2022-09-06T16:58:51.548Z,1.67
2022-09-06T17:01:18.620Z,1.90
2022-09-06T17:03:45.677Z,1.70
2022-09-06T17:06:13.089Z,1.95
2022-09-06T17:08:40.245Z,2.05
2022-09-06T17:11:09.484Z,2.17
2022-09-06T17:13:36.627Z,2.25
2022-09-06T17:16:22.662Z,2.30
2022-09-06T17:18:50.079Z,2.25
2022-09-06T17:21:16.879Z,2.13
2022-09-06T17:23:43.745Z,2.45
2022-09-06T17:26:10.629Z,2.28
2022-09-06T17:28:37.669Z,2.40
2022-09-06T17:31:05.154Z,1.92
2022-09-06T17:33:32.111Z,2.40
2022-09-06T17:36:12.841Z,2.50
2022-09-06T17:38:40.432Z,2.10
2022-09-06T17:41:07.535Z,2.50
2022-09-06T17:43:37.472Z,2.05
2022-09-06T17:46:04.830Z,1.95
2022-09-06T17:48:31.874Z,2.15
2022-09-06T17:51:05.609Z,2.25
2022-09-06T17:53:32.628Z,2.75
2022-09-06T17:56:03.826Z,2.20
2022-09-06T17:58:30.684Z,2.42
2022-09-06T18:00:57.526Z,2.40
2022-09-06T18:03:24.417Z,2.28
2022-09-06T18:05:51.258Z,2.38
2022-09-06T18:08:18.095Z,2.53
2022-09-06T18:10:45.508Z,2.38
2022-09-06T18:13:12.326Z,2.20
2022-09-06T18:15:40.182Z,2.38
2022-09-06T18:18:07.017Z,2.38
2022-09-06T18:20:33.860Z,2.45
2022-09-06T18:23:00.793Z,2.85
2022-09-06T18:25:28.576Z,2.65
2022-09-06T18:27:55.507Z,2.70
2022-09-06T18:30:22.410Z,2.47
2022-09-06T18:32:49.227Z,2.33
2022-09-06T18:35:16.047Z,2.22
2022-09-06T18:37:42.879Z,2.55
2022-09-06T18:40:10.253Z,2.70
2022-09-06T18:42:37.174Z,2.80
2022-09-06T18:45:04.342Z,2.22
2022-09-06T18:47:31.163Z,2.30
2022-09-06T18:49:57.996Z,2.13
2022-09-06T18:52:24.820Z,2.33
2022-09-06T18:54:51.654Z,2.22
2022-09-06T18:57:18.514Z,2.30
2022-09-06T18:59:45.328Z,2.60
2022-09-06T19:02:12.256Z,2.28
2022-09-06T19:04:39.694Z,2.28
2022-09-06T19:07:06.600Z,2.40
2022-09-06T19:09:33.479Z,2.33
2022-09-06T19:12:00.314Z,2.17
2022-09-06T19:14:27.325Z,2.55
2022-09-06T19:16:54.142Z,2.35
2022-09-06T19:19:21.888Z,2.50
2022-09-06T19:21:48.674Z,1.77
2022-09-06T19:24:16.061Z,2.10
2022-09-06T19:26:43.505Z,2.08
2022-09-06T19:29:17.728Z,2.58
2022-09-06T19:31:44.884Z,1.88
2022-09-06T19:34:13.556Z,2.10
2022-09-06T19:36:40.442Z,2.10
2022-09-06T19:39:09.654Z,2.22
2022-09-06T19:41:38.283Z,2.30
2022-09-06T19:44:05.998Z,2.38
2022-09-06T19:46:33.569Z,2.10
2022-09-06T19:49:00.629Z,1.67
2022-09-06T19:51:27.540Z,2.00
2022-09-06T19:53:57.660Z,2.03
2022-09-06T19:56:26.355Z,1.75
2022-09-06T19:58:58.277Z,2.03
2022-09-06T20:01:26.438Z,2.03
2022-09-06T20:03:53.449Z,1.85
2022-09-06T20:06:22.430Z,2.17
2022-09-06T20:08:50.657Z,2.38
2022-09-06T20:11:17.581Z,2.00
2022-09-06T20:13:44.550Z,2.00
2022-09-06T20:16:12.498Z,1.73
2022-09-06T20:18:39.681Z,2.33
2022-09-06T20:21:06.754Z,2.28
2022-09-06T20:23:36.953Z,1.95
2022-09-06T20:26:09.799Z,2.00
2022-09-06T20:28:37.138Z,1.92
2022-09-06T20:31:06.404Z,2.00
2022-09-06T20:33:33.464Z,1.83
2022-09-06T20:36:04.675Z,2.00
2022-09-06T20:38:32.572Z,2.05
2022-09-06T20:41:16.894Z,2.50
2022-09-06T20:43:43.818Z,2.28
2022-09-06T20:46:11.507Z,1.92
2022-09-06T20:48:43.677Z,1.60
2022-09-06T20:51:18.729Z,1.60
2022-09-06T20:53:46.819Z,2.08
2022-09-06T20:56:16.553Z,3.22
2022-09-06T20:58:47.374Z,3.83
2022-09-06T21:01:22.244Z,4.05
2022-09-06T21:03:51.406Z,3.42
2022-09-06T21:06:18.425Z,3.13
2022-09-06T21:08:45.499Z,3.58
2022-09-06T21:11:12.515Z,3.03
2022-09-06T21:13:39.655Z,3.25
2022-09-06T21:16:06.912Z,4.00
2022-09-06T21:18:34.098Z,4.78
2022-09-06T21:21:07.868Z,3.15
2022-09-06T21:23:35.950Z,3.50
2022-09-06T21:26:04.818Z,3.35
2022-09-06T21:28:33.016Z,3.58
2022-09-06T21:31:03.698Z,3.03
2022-09-06T21:33:31.479Z,3.63
2022-09-06T21:36:01.179Z,3.45
2022-09-06T21:38:28.084Z,3.53
2022-09-06T21:40:55.001Z,3.00
2022-09-06T21:43:21.878Z,3.42
2022-09-06T21:45:48.836Z,3.10
2022-09-06T21:48:18.315Z,2.60
2022-09-06T21:50:49.178Z,3.33
2022-09-06T21:53:16.199Z,3.10
2022-09-06T21:55:43.731Z,3.13
2022-09-06T21:58:11.277Z,2.72
2022-09-06T22:00:38.616Z,2.85
2022-09-06T22:03:05.812Z,2.75
2022-09-06T22:05:32.797Z,3.00
2022-09-06T22:07:59.668Z,2.25
2022-09-06T22:10:26.611Z,2.42
2022-09-06T22:12:53.620Z,3.28
2022-09-06T22:15:21.771Z,2.90
2022-09-06T22:17:48.956Z,2.83
2022-09-06T22:20:15.837Z,2.38
2022-09-06T22:22:45.998Z,2.20
2022-09-06T22:25:13.715Z,2.92
2022-09-06T22:27:40.918Z,2.83
2022-09-06T22:30:08.212Z,2.53
2022-09-06T22:32:35.023Z,2.90
2022-09-06T22:35:02.211Z,2.42
2022-09-06T22:37:29.073Z,2.33
2022-09-06T22:39:56.263Z,3.00
2022-09-06T22:42:23.119Z,2.40
2022-09-06T22:44:49.946Z,3.03
2022-09-06T22:47:17.042Z,2.33
2022-09-06T22:49:43.851Z,2.95
2022-09-06T22:52:11.847Z,2.92
2022-09-06T22:54:39.519Z,2.80
2022-09-06T22:57:06.461Z,2.72
2022-09-06T22:59:36.483Z,2.50
2022-09-06T23:02:03.608Z,2.30
2022-09-06T23:04:30.516Z,2.55
2022-09-06T23:06:57.503Z,2.72
2022-09-06T23:09:24.341Z,2.85
2022-09-06T23:11:51.138Z,2.30
2022-09-06T23:14:17.961Z,2.60
2022-09-06T23:16:44.779Z,2.25
2022-09-06T23:19:11.590Z,2.92
2022-09-06T23:21:38.434Z,3.15
2022-09-06T23:24:05.601Z,2.60
2022-09-06T23:26:32.683Z,2.85
2022-09-06T23:29:00.186Z,3.15
2022-09-06T23:31:28.518Z,2.40
2022-09-06T23:33:56.942Z,2.75
2022-09-06T23:36:24.017Z,2.85
2022-09-06T23:38:50.966Z,2.70
2022-09-06T23:41:17.875Z,3.25
2022-09-06T23:43:44.809Z,2.88
2022-09-06T23:46:12.698Z,2.60
2022-09-06T23:48:39.581Z,3.63
2022-09-06T23:51:06.754Z,3.10
2022-09-06T23:53:33.717Z,3.55
2022-09-06T23:56:00.761Z,2.90
2022-09-06T23:58:27.588Z,3.47
